sensor_id;sensor_type;location;lat;lon;timestamp;P1;durP1;ratioP1;P2;durP2;ratioP2
51981;SDS011;37998;53.416;6.730;2024-02-14T00:02:21;9.82;;;5.95;;
51981;SDS011;37998;53.416;6.730;2024-02-14T00:04:47;10.18;;;5.65;;
51981;SDS011;37998;53.416;6.730;2024-02-14T00:07:13;11.35;;;6.30;;
51981;SDS011;37998;53.416;6.730;2024-02-14T00:09:40;8.73;;;6.50;;
51981;SDS011;37998;53.416;6.730;2024-02-14T00:12:06;10.95;;;6.95;;
51981;SDS011;37998;53.416;6.730;2024-02-14T00:14:32;9.38;;;6.22;;
51981;SDS011;37998;53.416;6.730;2024-02-14T00:16:57;11.30;;;6.63;;
51981;SDS011;37998;53.416;6.730;2024-02-14T00:19:24;11.27;;;6.38;;
51981;SDS011;37998;53.416;6.730;2024-02-14T00:21:50;11.65;;;7.75;;
51981;SDS011;37998;53.416;6.730;2024-02-14T00:24:16;15.85;;;7.03;;
51981;SDS011;37998;53.416;6.730;2024-02-14T00:26:44;11.32;;;7.05;;
51981;SDS011;37998;53.416;6.730;2024-02-14T00:29:11;9.38;;;7.00;;
51981;SDS011;37998;53.416;6.730;2024-02-14T00:31:37;9.00;;;6.80;;
51981;SDS011;37998;53.416;6.730;2024-02-14T00:34:13;11.70;;;7.35;;
51981;SDS011;37998;53.416;6.730;2024-02-14T00:36:39;7.95;;;7.15;;
51981;SDS011;37998;53.416;6.730;2024-02-14T00:39:05;13.55;;;7.60;;
51981;SDS011;37998;53.416;6.730;2024-02-14T00:41:34;13.77;;;7.85;;
51981;SDS011;37998;53.416;6.730;2024-02-14T00:44:00;8.77;;;7.15;;
51981;SDS011;37998;53.416;6.730;2024-02-14T00:46:28;11.25;;;7.45;;
51981;SDS011;37998;53.416;6.730;2024-02-14T00:48:55;11.90;;;8.30;;
51981;SDS011;37998;53.416;6.730;2024-02-14T00:51:21;13.98;;;7.80;;
51981;SDS011;37998;53.416;6.730;2024-02-14T00:53:47;12.23;;;8.38;;
51981;SDS011;37998;53.416;6.730;2024-02-14T00:56:13;10.18;;;8.38;;
51981;SDS011;37998;53.416;6.730;2024-02-14T00:58:39;12.75;;;8.90;;
51981;SDS011;37998;53.416;6.730;2024-02-14T01:01:05;10.73;;;9.00;;
51981;SDS011;37998;53.416;6.730;2024-02-14T01:03:31;13.13;;;8.80;;
51981;SDS011;37998;53.416;6.730;2024-02-14T01:05:57;12.95;;;9.75;;
51981;SDS011;37998;53.416;6.730;2024-02-14T01:08:23;11.80;;;8.63;;
51981;SDS011;37998;53.416;6.730;2024-02-14T01:10:49;11.02;;;9.00;;
51981;SDS011;37998;53.416;6.730;2024-02-14T01:13:18;10.65;;;9.10;;
51981;SDS011;37998;53.416;6.730;2024-02-14T01:15:44;13.20;;;8.82;;
51981;SDS011;37998;53.416;6.730;2024-02-14T01:18:10;14.30;;;9.80;;
51981;SDS011;37998;53.416;6.730;2024-02-14T01:20:35;10.50;;;8.60;;
51981;SDS011;37998;53.416;6.730;2024-02-14T01:23:02;13.70;;;9.73;;
51981;SDS011;37998;53.416;6.730;2024-02-14T01:25:30;12.70;;;9.57;;
51981;SDS011;37998;53.416;6.730;2024-02-14T01:27:58;9.82;;;8.85;;
51981;SDS011;37998;53.416;6.730;2024-02-14T01:30:25;11.00;;;9.40;;
51981;SDS011;37998;53.416;6.730;2024-02-14T01:32:52;10.52;;;9.43;;
51981;SDS011;37998;53.416;6.730;2024-02-14T01:35:18;11.32;;;8.85;;
51981;SDS011;37998;53.416;6.730;2024-02-14T01:37:44;10.52;;;9.45;;
51981;SDS011;37998;53.416;6.730;2024-02-14T01:40:11;10.75;;;8.55;;
51981;SDS011;37998;53.416;6.730;2024-02-14T01:42:50;11.20;;;8.80;;
51981;SDS011;37998;53.416;6.730;2024-02-14T01:45:17;10.32;;;8.73;;
51981;SDS011;37998;53.416;6.730;2024-02-14T01:47:57;11.65;;;9.05;;
51981;SDS011;37998;53.416;6.730;2024-02-14T01:50:23;10.32;;;9.23;;
51981;SDS011;37998;53.416;6.730;2024-02-14T01:52:55;10.45;;;9.32;;
51981;SDS011;37998;53.416;6.730;2024-02-14T01:55:24;10.85;;;8.60;;
51981;SDS011;37998;53.416;6.730;2024-02-14T01:57:54;11.02;;;8.68;;
51981;SDS011;37998;53.416;6.730;2024-02-14T02:00:20;10.30;;;9.18;;
51981;SDS011;37998;53.416;6.730;2024-02-14T02:02:46;10.95;;;9.07;;
51981;SDS011;37998;53.416;6.730;2024-02-14T02:05:18;10.05;;;8.98;;
51981;SDS011;37998;53.416;6.730;2024-02-14T02:07:44;10.43;;;9.43;;
51981;SDS011;37998;53.416;6.730;2024-02-14T02:10:13;12.63;;;9.40;;
51981;SDS011;37998;53.416;6.730;2024-02-14T02:12:45;9.88;;;8.80;;
51981;SDS011;37998;53.416;6.730;2024-02-14T02:15:31;10.93;;;8.57;;
51981;SDS011;37998;53.416;6.730;2024-02-14T02:18:17;9.57;;;8.57;;
51981;SDS011;37998;53.416;6.730;2024-02-14T02:21:03;9.57;;;8.48;;
51981;SDS011;37998;53.416;6.730;2024-02-14T02:23:35;8.95;;;7.72;;
51981;SDS011;37998;53.416;6.730;2024-02-14T02:26:01;9.25;;;8.18;;
51981;SDS011;37998;53.416;6.730;2024-02-14T02:28:47;9.88;;;8.45;;
51981;SDS011;37998;53.416;6.730;2024-02-14T02:31:13;9.43;;;8.52;;
51981;SDS011;37998;53.416;6.730;2024-02-14T02:33:42;9.45;;;8.27;;
51981;SDS011;37998;53.416;6.730;2024-02-14T02:36:08;9.10;;;7.95;;
51981;SDS011;37998;53.416;6.730;2024-02-14T02:38:55;8.48;;;7.60;;
51981;SDS011;37998;53.416;6.730;2024-02-14T02:41:43;8.93;;;7.72;;
51981;SDS011;37998;53.416;6.730;2024-02-14T02:44:31;9.68;;;8.00;;
51981;SDS011;37998;53.416;6.730;2024-02-14T02:47:16;9.48;;;8.55;;
51981;SDS011;37998;53.416;6.730;2024-02-14T02:50:02;8.38;;;7.57;;
51981;SDS011;37998;53.416;6.730;2024-02-14T02:52:49;8.00;;;7.20;;
51981;SDS011;37998;53.416;6.730;2024-02-14T02:55:34;8.77;;;6.80;;
51981;SDS011;37998;53.416;6.730;2024-02-14T02:58:03;7.68;;;6.97;;
51981;SDS011;37998;53.416;6.730;2024-02-14T03:00:30;7.78;;;6.97;;
51981;SDS011;37998;53.416;6.730;2024-02-14T03:03:08;7.60;;;6.90;;
51981;SDS011;37998;53.416;6.730;2024-02-14T03:05:49;7.28;;;6.57;;
51981;SDS011;37998;53.416;6.730;2024-02-14T03:08:25;7.78;;;7.00;;
51981;SDS011;37998;53.416;6.730;2024-02-14T03:11:11;6.95;;;6.35;;
51981;SDS011;37998;53.416;6.730;2024-02-14T03:13:57;7.35;;;6.65;;
51981;SDS011;37998;53.416;6.730;2024-02-14T03:16:43;7.32;;;6.63;;
51981;SDS011;37998;53.416;6.730;2024-02-14T03:19:08;7.53;;;6.78;;
51981;SDS011;37998;53.416;6.730;2024-02-14T03:21:35;7.95;;;7.20;;
51981;SDS011;37998;53.416;6.730;2024-02-14T03:24:01;7.28;;;6.57;;
51981;SDS011;37998;53.416;6.730;2024-02-14T03:26:33;8.10;;;6.57;;
51981;SDS011;37998;53.416;6.730;2024-02-14T03:29:02;7.28;;;6.57;;
51981;SDS011;37998;53.416;6.730;2024-02-14T03:31:32;7.60;;;6.90;;
51981;SDS011;37998;53.416;6.730;2024-02-14T03:33:58;8.07;;;7.13;;
51981;SDS011;37998;53.416;6.730;2024-02-14T03:36:24;8.13;;;7.32;;
51981;SDS011;37998;53.416;6.730;2024-02-14T03:38:53;7.53;;;6.82;;
51981;SDS011;37998;53.416;6.730;2024-02-14T03:41:19;6.95;;;6.32;;
51981;SDS011;37998;53.416;6.730;2024-02-14T03:43:45;8.77;;;7.97;;
51981;SDS011;37998;53.416;6.730;2024-02-14T03:46:11;10.43;;;7.40;;
51981;SDS011;37998;53.416;6.730;2024-02-14T03:48:38;8.20;;;7.40;;
51981;SDS011;37998;53.416;6.730;2024-02-14T03:51:06;8.35;;;6.35;;
51981;SDS011;37998;53.416;6.730;2024-02-14T03:53:31;7.80;;;6.97;;
51981;SDS011;37998;53.416;6.730;2024-02-14T03:55:58;9.25;;;6.63;;
51981;SDS011;37998;53.416;6.730;2024-02-14T03:58:24;7.38;;;6.68;;
51981;SDS011;37998;53.416;6.730;2024-02-14T04:00:50;7.78;;;6.97;;
51981;SDS011;37998;53.416;6.730;2024-02-14T04:03:17;8.18;;;6.38;;
51981;SDS011;37998;53.416;6.730;2024-02-14T04:05:43;7.50;;;6.70;;
51981;SDS011;37998;53.416;6.730;2024-02-14T04:08:10;8.52;;;7.15;;
51981;SDS011;37998;53.416;6.730;2024-02-14T04:10:37;7.55;;;6.85;;
51981;SDS011;37998;53.416;6.730;2024-02-14T04:13:03;7.53;;;6.82;;
51981;SDS011;37998;53.416;6.730;2024-02-14T04:15:32;7.72;;;6.93;;
51981;SDS011;37998;53.416;6.730;2024-02-14T04:18:04;7.38;;;6.63;;
51981;SDS011;37998;53.416;6.730;2024-02-14T04:20:31;7.30;;;6.60;;
51981;SDS011;37998;53.416;6.730;2024-02-14T04:22:57;7.50;;;6.80;;
51981;SDS011;37998;53.416;6.730;2024-02-14T04:25:24;7.10;;;6.40;;
51981;SDS011;37998;53.416;6.730;2024-02-14T04:27:50;6.70;;;6.07;;
51981;SDS011;37998;53.416;6.730;2024-02-14T04:30:15;7.90;;;7.07;;
51981;SDS011;37998;53.416;6.730;2024-02-14T04:33:01;6.90;;;6.20;;
51981;SDS011;37998;53.416;6.730;2024-02-14T04:35:28;6.97;;;6.28;;
51981;SDS011;37998;53.416;6.730;2024-02-14T04:37:54;7.32;;;6.63;;
51981;SDS011;37998;53.416;6.730;2024-02-14T04:40:20;8.00;;;6.60;;
51981;SDS011;37998;53.416;6.730;2024-02-14T04:42:46;7.50;;;6.70;;
51981;SDS011;37998;53.416;6.730;2024-02-14T04:45:12;7.20;;;6.50;;
51981;SDS011;37998;53.416;6.730;2024-02-14T04:47:52;8.15;;;7.22;;
51981;SDS011;37998;53.416;6.730;2024-02-14T04:50:18;8.65;;;7.47;;
51981;SDS011;37998;53.416;6.730;2024-02-14T04:52:44;8.68;;;7.78;;
51981;SDS011;37998;53.416;6.730;2024-02-14T04:55:10;8.93;;;8.02;;
51981;SDS011;37998;53.416;6.730;2024-02-14T04:57:36;9.35;;;8.40;;
51981;SDS011;37998;53.416;6.730;2024-02-14T05:00:03;11.15;;;9.05;;
51981;SDS011;37998;53.416;6.730;2024-02-14T05:02:32;9.68;;;8.68;;
51981;SDS011;37998;53.416;6.730;2024-02-14T05:04:58;10.80;;;9.25;;
51981;SDS011;37998;53.416;6.730;2024-02-14T05:07:24;10.52;;;9.10;;
51981;SDS011;37998;53.416;6.730;2024-02-14T05:09:50;10.88;;;9.27;;
51981;SDS011;37998;53.416;6.730;2024-02-14T05:12:17;11.68;;;9.57;;
51981;SDS011;37998;53.416;6.730;2024-02-14T05:14:45;10.50;;;9.32;;
51981;SDS011;37998;53.416;6.730;2024-02-14T05:17:11;12.15;;;9.23;;
51981;SDS011;37998;53.416;6.730;2024-02-14T05:19:37;12.88;;;10.30;;
51981;SDS011;37998;53.416;6.730;2024-02-14T05:22:03;10.88;;;9.73;;
51981;SDS011;37998;53.416;6.730;2024-02-14T05:24:29;11.68;;;9.98;;
51981;SDS011;37998;53.416;6.730;2024-02-14T05:26:56;12.32;;;10.40;;
51981;SDS011;37998;53.416;6.730;2024-02-14T05:29:22;12.52;;;9.50;;
51981;SDS011;37998;53.416;6.730;2024-02-14T05:31:48;12.13;;;9.85;;
51981;SDS011;37998;53.416;6.730;2024-02-14T05:34:14;12.90;;;10.55;;
51981;SDS011;37998;53.416;6.730;2024-02-14T05:36:40;12.48;;;9.82;;
51981;SDS011;37998;53.416;6.730;2024-02-14T05:39:07;11.45;;;10.23;;
51981;SDS011;37998;53.416;6.730;2024-02-14T05:41:33;12.57;;;10.20;;
51981;SDS011;37998;53.416;6.730;2024-02-14T05:44:00;13.80;;;11.00;;
51981;SDS011;37998;53.416;6.730;2024-02-14T05:46:27;11.48;;;9.32;;
51981;SDS011;37998;53.416;6.730;2024-02-14T05:48:53;11.45;;;9.35;;
51981;SDS011;37998;53.416;6.730;2024-02-14T05:51:20;11.20;;;9.77;;
51981;SDS011;37998;53.416;6.730;2024-02-14T05:53:45;11.98;;;9.60;;
51981;SDS011;37998;53.416;6.730;2024-02-14T05:56:11;14.25;;;10.15;;
51981;SDS011;37998;53.416;6.730;2024-02-14T05:58:37;13.63;;;10.50;;
51981;SDS011;37998;53.416;6.730;2024-02-14T06:01:03;13.75;;;9.98;;
51981;SDS011;37998;53.416;6.730;2024-02-14T06:03:29;15.23;;;10.85;;
51981;SDS011;37998;53.416;6.730;2024-02-14T06:05:55;14.63;;;10.07;;
51981;SDS011;37998;53.416;6.730;2024-02-14T06:08:21;13.93;;;10.30;;
51981;SDS011;37998;53.416;6.730;2024-02-14T06:10:49;13.02;;;9.95;;
51981;SDS011;37998;53.416;6.730;2024-02-14T06:13:15;15.15;;;10.15;;
51981;SDS011;37998;53.416;6.730;2024-02-14T06:15:41;13.82;;;10.27;;
51981;SDS011;37998;53.416;6.730;2024-02-14T06:18:07;14.43;;;10.25;;
51981;SDS011;37998;53.416;6.730;2024-02-14T06:20:33;14.55;;;10.70;;
51981;SDS011;37998;53.416;6.730;2024-02-14T06:22:59;16.60;;;9.90;;
51981;SDS011;37998;53.416;6.730;2024-02-14T06:25:24;14.48;;;10.77;;
51981;SDS011;37998;53.416;6.730;2024-02-14T06:27:58;15.32;;;10.88;;
51981;SDS011;37998;53.416;6.730;2024-02-14T06:30:24;13.50;;;9.73;;
51981;SDS011;37998;53.416;6.730;2024-02-14T06:32:50;15.25;;;9.57;;
51981;SDS011;37998;53.416;6.730;2024-02-14T06:35:16;12.52;;;8.73;;
51981;SDS011;37998;53.416;6.730;2024-02-14T06:37:44;12.50;;;8.32;;
51981;SDS011;37998;53.416;6.730;2024-02-14T06:40:10;13.40;;;8.55;;
51981;SDS011;37998;53.416;6.730;2024-02-14T06:42:37;16.33;;;8.75;;
51981;SDS011;37998;53.416;6.730;2024-02-14T06:45:03;12.32;;;8.30;;
51981;SDS011;37998;53.416;6.730;2024-02-14T06:47:32;15.95;;;8.77;;
51981;SDS011;37998;53.416;6.730;2024-02-14T06:49:58;17.05;;;8.20;;
51981;SDS011;37998;53.416;6.730;2024-02-14T06:52:24;14.15;;;8.32;;
51981;SDS011;37998;53.416;6.730;2024-02-14T06:54:50;11.40;;;7.95;;
51981;SDS011;37998;53.416;6.730;2024-02-14T06:57:16;15.30;;;7.90;;
51981;SDS011;37998;53.416;6.730;2024-02-14T06:59:43;12.32;;;7.63;;
51981;SDS011;37998;53.416;6.730;2024-02-14T07:02:09;16.67;;;8.48;;
51981;SDS011;37998;53.416;6.730;2024-02-14T07:04:35;12.20;;;8.00;;
51981;SDS011;37998;53.416;6.730;2024-02-14T07:07:02;12.90;;;8.20;;
51981;SDS011;37998;53.416;6.730;2024-02-14T07:09:28;14.77;;;8.43;;
51981;SDS011;37998;53.416;6.730;2024-02-14T07:11:54;14.05;;;8.23;;
51981;SDS011;37998;53.416;6.730;2024-02-14T07:14:22;18.25;;;8.98;;
51981;SDS011;37998;53.416;6.730;2024-02-14T07:16:48;16.63;;;8.32;;
51981;SDS011;37998;53.416;6.730;2024-02-14T07:19:14;17.45;;;9.27;;
51981;SDS011;37998;53.416;6.730;2024-02-14T07:21:40;16.02;;;9.52;;
51981;SDS011;37998;53.416;6.730;2024-02-14T07:24:06;19.85;;;9.70;;
51981;SDS011;37998;53.416;6.730;2024-02-14T07:26:32;19.23;;;9.88;;
51981;SDS011;37998;53.416;6.730;2024-02-14T07:28:58;14.75;;;9.10;;
51981;SDS011;37998;53.416;6.730;2024-02-14T07:31:24;24.70;;;9.25;;
51981;SDS011;37998;53.416;6.730;2024-02-14T07:33:55;20.65;;;10.90;;
51981;SDS011;37998;53.416;6.730;2024-02-14T07:36:21;36.67;;;12.00;;
51981;SDS011;37998;53.416;6.730;2024-02-14T07:38:47;30.02;;;11.93;;
51981;SDS011;37998;53.416;6.730;2024-02-14T07:41:13;31.40;;;12.73;;
51981;SDS011;37998;53.416;6.730;2024-02-14T07:43:46;37.60;;;13.18;;
51981;SDS011;37998;53.416;6.730;2024-02-14T07:46:19;40.80;;;13.77;;
51981;SDS011;37998;53.416;6.730;2024-02-14T07:48:45;38.08;;;13.70;;
51981;SDS011;37998;53.416;6.730;2024-02-14T07:51:12;48.50;;;13.85;;
51981;SDS011;37998;53.416;6.730;2024-02-14T07:53:38;48.40;;;12.40;;
51981;SDS011;37998;53.416;6.730;2024-02-14T07:56:04;57.55;;;13.82;;
51981;SDS011;37998;53.416;6.730;2024-02-14T07:58:30;65.60;;;14.35;;
51981;SDS011;37998;53.416;6.730;2024-02-14T08:00:56;45.85;;;13.95;;
51981;SDS011;37998;53.416;6.730;2024-02-14T08:03:22;39.35;;;11.93;;
51981;SDS011;37998;53.416;6.730;2024-02-14T08:05:48;44.30;;;13.20;;
51981;SDS011;37998;53.416;6.730;2024-02-14T08:08:14;51.70;;;12.95;;
51981;SDS011;37998;53.416;6.730;2024-02-14T08:10:40;46.20;;;12.25;;
51981;SDS011;37998;53.416;6.730;2024-02-14T08:13:06;50.88;;;11.23;;
51981;SDS011;37998;53.416;6.730;2024-02-14T08:15:32;66.03;;;12.30;;
51981;SDS011;37998;53.416;6.730;2024-02-14T08:17:58;55.53;;;12.05;;
51981;SDS011;37998;53.416;6.730;2024-02-14T08:20:24;45.28;;;10.30;;
51981;SDS011;37998;53.416;6.730;2024-02-14T08:23:01;54.97;;;12.00;;
51981;SDS011;37998;53.416;6.730;2024-02-14T08:25:27;49.95;;;10.48;;
51981;SDS011;37998;53.416;6.730;2024-02-14T08:27:53;46.72;;;10.43;;
51981;SDS011;37998;53.416;6.730;2024-02-14T08:30:18;54.22;;;11.80;;
51981;SDS011;37998;53.416;6.730;2024-02-14T08:32:45;44.13;;;10.40;;
51981;SDS011;37998;53.416;6.730;2024-02-14T08:35:10;48.65;;;11.10;;
51981;SDS011;37998;53.416;6.730;2024-02-14T08:37:39;49.50;;;11.40;;
51981;SDS011;37998;53.416;6.730;2024-02-14T08:40:06;50.20;;;11.02;;
51981;SDS011;37998;53.416;6.730;2024-02-14T08:42:35;47.38;;;11.18;;
51981;SDS011;37998;53.416;6.730;2024-02-14T08:45:02;51.10;;;11.50;;
51981;SDS011;37998;53.416;6.730;2024-02-14T08:47:29;45.95;;;11.48;;
51981;SDS011;37998;53.416;6.730;2024-02-14T08:49:55;57.58;;;12.27;;
51981;SDS011;37998;53.416;6.730;2024-02-14T08:52:20;55.28;;;12.95;;
51981;SDS011;37998;53.416;6.730;2024-02-14T08:54:46;47.65;;;12.32;;
51981;SDS011;37998;53.416;6.730;2024-02-14T08:57:12;50.10;;;11.88;;
51981;SDS011;37998;53.416;6.730;2024-02-14T08:59:38;49.17;;;12.07;;
51981;SDS011;37998;53.416;6.730;2024-02-14T09:02:05;49.67;;;13.30;;
51981;SDS011;37998;53.416;6.730;2024-02-14T09:04:31;61.95;;;13.15;;
51981;SDS011;37998;53.416;6.730;2024-02-14T09:06:57;54.60;;;13.50;;
51981;SDS011;37998;53.416;6.730;2024-02-14T09:09:23;59.38;;;11.48;;
51981;SDS011;37998;53.416;6.730;2024-02-14T09:11:48;52.63;;;12.32;;
51981;SDS011;37998;53.416;6.730;2024-02-14T09:14:16;58.50;;;12.48;;
51981;SDS011;37998;53.416;6.730;2024-02-14T09:16:41;55.45;;;12.45;;
51981;SDS011;37998;53.416;6.730;2024-02-14T09:19:07;51.45;;;11.82;;
51981;SDS011;37998;53.416;6.730;2024-02-14T09:21:35;51.58;;;11.40;;
51981;SDS011;37998;53.416;6.730;2024-02-14T09:24:01;52.05;;;11.18;;
51981;SDS011;37998;53.416;6.730;2024-02-14T09:26:28;45.70;;;12.05;;
51981;SDS011;37998;53.416;6.730;2024-02-14T09:28:55;51.03;;;10.65;;
51981;SDS011;37998;53.416;6.730;2024-02-14T09:31:21;47.30;;;11.30;;
51981;SDS011;37998;53.416;6.730;2024-02-14T09:33:47;44.65;;;11.95;;
51981;SDS011;37998;53.416;6.730;2024-02-14T09:36:14;42.33;;;11.07;;
51981;SDS011;37998;53.416;6.730;2024-02-14T09:38:40;50.80;;;11.27;;
51981;SDS011;37998;53.416;6.730;2024-02-14T09:41:29;43.80;;;11.10;;
51981;SDS011;37998;53.416;6.730;2024-02-14T09:43:56;42.17;;;10.20;;
51981;SDS011;37998;53.416;6.730;2024-02-14T09:46:25;37.25;;;11.05;;
51981;SDS011;37998;53.416;6.730;2024-02-14T09:48:51;37.10;;;10.32;;
51981;SDS011;37998;53.416;6.730;2024-02-14T09:51:19;45.83;;;11.77;;
51981;SDS011;37998;53.416;6.730;2024-02-14T09:53:45;37.20;;;11.82;;
51981;SDS011;37998;53.416;6.730;2024-02-14T09:56:12;40.28;;;10.98;;
51981;SDS011;37998;53.416;6.730;2024-02-14T09:58:39;38.08;;;10.23;;
51981;SDS011;37998;53.416;6.730;2024-02-14T10:01:06;31.98;;;10.00;;
51981;SDS011;37998;53.416;6.730;2024-02-14T10:03:33;36.75;;;11.38;;
51981;SDS011;37998;53.416;6.730;2024-02-14T10:06:00;29.92;;;10.30;;
51981;SDS011;37998;53.416;6.730;2024-02-14T10:08:27;37.47;;;12.15;;
51981;SDS011;37998;53.416;6.730;2024-02-14T10:10:56;42.50;;;11.25;;
51981;SDS011;37998;53.416;6.730;2024-02-14T10:13:23;38.67;;;11.48;;
51981;SDS011;37998;53.416;6.730;2024-02-14T10:15:51;46.42;;;12.40;;
51981;SDS011;37998;53.416;6.730;2024-02-14T10:18:17;39.85;;;12.80;;
51981;SDS011;37998;53.416;6.730;2024-02-14T10:20:56;42.90;;;12.75;;
51981;SDS011;37998;53.416;6.730;2024-02-14T10:23:22;46.80;;;13.18;;
51981;SDS011;37998;53.416;6.730;2024-02-14T10:25:57;37.05;;;11.93;;
51981;SDS011;37998;53.416;6.730;2024-02-14T10:28:24;34.45;;;12.73;;
51981;SDS011;37998;53.416;6.730;2024-02-14T10:30:50;30.48;;;11.13;;
51981;SDS011;37998;53.416;6.730;2024-02-14T10:33:16;42.00;;;12.05;;
51981;SDS011;37998;53.416;6.730;2024-02-14T10:35:43;36.63;;;11.27;;
51981;SDS011;37998;53.416;6.730;2024-02-14T10:38:10;31.63;;;10.48;;
51981;SDS011;37998;53.416;6.730;2024-02-14T10:40:37;26.90;;;10.70;;
51981;SDS011;37998;53.416;6.730;2024-02-14T10:43:08;38.00;;;11.00;;
51981;SDS011;37998;53.416;6.730;2024-02-14T10:45:37;32.95;;;10.75;;
51981;SDS011;37998;53.416;6.730;2024-02-14T10:48:06;36.17;;;11.85;;
51981;SDS011;37998;53.416;6.730;2024-02-14T10:50:36;41.65;;;12.70;;
51981;SDS011;37998;53.416;6.730;2024-02-14T10:53:06;41.60;;;14.32;;
51981;SDS011;37998;53.416;6.730;2024-02-14T10:55:38;30.23;;;12.52;;
51981;SDS011;37998;53.416;6.730;2024-02-14T10:58:07;46.13;;;14.18;;
51981;SDS011;37998;53.416;6.730;2024-02-14T11:00:35;40.60;;;15.15;;
51981;SDS011;37998;53.416;6.730;2024-02-14T11:03:01;41.78;;;15.18;;
51981;SDS011;37998;53.416;6.730;2024-02-14T11:05:28;35.03;;;15.52;;
51981;SDS011;37998;53.416;6.730;2024-02-14T11:07:54;36.60;;;15.52;;
51981;SDS011;37998;53.416;6.730;2024-02-14T11:10:20;32.30;;;13.73;;
51981;SDS011;37998;53.416;6.730;2024-02-14T11:12:47;29.83;;;14.27;;
51981;SDS011;37998;53.416;6.730;2024-02-14T11:15:19;33.40;;;15.32;;
51981;SDS011;37998;53.416;6.730;2024-02-14T11:18:03;19.42;;;12.63;;
51981;SDS011;37998;53.416;6.730;2024-02-14T11:20:31;24.30;;;13.02;;
51981;SDS011;37998;53.416;6.730;2024-02-14T11:25:30;18.83;;;10.85;;
51981;SDS011;37998;53.416;6.730;2024-02-14T11:27:58;20.80;;;11.40;;
51981;SDS011;37998;53.416;6.730;2024-02-14T11:30:31;18.17;;;11.27;;
51981;SDS011;37998;53.416;6.730;2024-02-14T11:33:33;14.05;;;10.30;;
51981;SDS011;37998;53.416;6.730;2024-02-14T11:35:53;14.90;;;11.80;;
51981;SDS011;37998;53.416;6.730;2024-02-14T11:38:23;17.80;;;11.70;;
51981;SDS011;37998;53.416;6.730;2024-02-14T11:40:51;19.75;;;12.27;;
51981;SDS011;37998;53.416;6.730;2024-02-14T11:43:20;23.58;;;12.80;;
51981;SDS011;37998;53.416;6.730;2024-02-14T11:45:46;21.88;;;14.43;;
51981;SDS011;37998;53.416;6.730;2024-02-14T11:48:15;23.95;;;14.10;;
51981;SDS011;37998;53.416;6.730;2024-02-14T11:50:43;21.38;;;13.40;;
51981;SDS011;37998;53.416;6.730;2024-02-14T11:53:11;23.08;;;12.63;;
51981;SDS011;37998;53.416;6.730;2024-02-14T11:55:38;19.35;;;11.77;;
51981;SDS011;37998;53.416;6.730;2024-02-14T11:58:16;19.08;;;11.65;;
51981;SDS011;37998;53.416;6.730;2024-02-14T12:00:43;16.73;;;11.40;;
51981;SDS011;37998;53.416;6.730;2024-02-14T12:03:11;16.45;;;11.23;;
51981;SDS011;37998;53.416;6.730;2024-02-14T12:05:42;16.00;;;10.73;;
51981;SDS011;37998;53.416;6.730;2024-02-14T12:08:09;17.05;;;11.35;;
51981;SDS011;37998;53.416;6.730;2024-02-14T12:10:36;20.38;;;12.27;;
51981;SDS011;37998;53.416;6.730;2024-02-14T12:13:08;17.00;;;11.68;;
51981;SDS011;37998;53.416;6.730;2024-02-14T12:18:04;18.48;;;10.57;;
51981;SDS011;37998;53.416;6.730;2024-02-14T12:20:31;18.30;;;10.93;;
51981;SDS011;37998;53.416;6.730;2024-02-14T12:22:58;14.82;;;10.25;;
51981;SDS011;37998;53.416;6.730;2024-02-14T12:25:25;19.25;;;10.65;;
51981;SDS011;37998;53.416;6.730;2024-02-14T12:27:51;20.45;;;9.88;;
51981;SDS011;37998;53.416;6.730;2024-02-14T12:30:18;14.48;;;9.25;;
51981;SDS011;37998;53.416;6.730;2024-02-14T12:32:57;12.75;;;8.40;;
51981;SDS011;37998;53.416;6.730;2024-02-14T12:35:24;12.98;;;8.82;;
51981;SDS011;37998;53.416;6.730;2024-02-14T12:37:50;13.35;;;9.65;;
51981;SDS011;37998;53.416;6.730;2024-02-14T12:40:16;10.18;;;8.60;;
51981;SDS011;37998;53.416;6.730;2024-02-14T12:42:45;9.10;;;7.65;;
51981;SDS011;37998;53.416;6.730;2024-02-14T12:45:11;11.25;;;7.75;;
51981;SDS011;37998;53.416;6.730;2024-02-14T12:47:37;11.23;;;8.27;;
51981;SDS011;37998;53.416;6.730;2024-02-14T12:50:03;16.63;;;13.95;;
51981;SDS011;37998;53.416;6.730;2024-02-14T12:52:34;21.13;;;12.98;;
51981;SDS011;37998;53.416;6.730;2024-02-14T12:55:00;11.02;;;9.00;;
51981;SDS011;37998;53.416;6.730;2024-02-14T12:57:26;21.92;;;15.95;;
51981;SDS011;37998;53.416;6.730;2024-02-14T12:59:52;11.65;;;9.48;;
51981;SDS011;37998;53.416;6.730;2024-02-14T13:02:18;11.02;;;9.50;;
51981;SDS011;37998;53.416;6.730;2024-02-14T13:04:44;12.57;;;10.00;;
51981;SDS011;37998;53.416;6.730;2024-02-14T13:07:10;9.73;;;6.10;;
51981;SDS011;37998;53.416;6.730;2024-02-14T13:09:36;8.95;;;6.28;;
51981;SDS011;37998;53.416;6.730;2024-02-14T13:12:03;10.25;;;9.07;;
51981;SDS011;37998;53.416;6.730;2024-02-14T13:14:31;8.85;;;6.95;;
51981;SDS011;37998;53.416;6.730;2024-02-14T13:16:58;8.02;;;7.05;;
51981;SDS011;37998;53.416;6.730;2024-02-14T13:19:24;10.35;;;8.52;;
51981;SDS011;37998;53.416;6.730;2024-02-14T13:21:50;7.75;;;6.95;;
51981;SDS011;37998;53.416;6.730;2024-02-14T13:24:16;11.10;;;10.00;;
51981;SDS011;37998;53.416;6.730;2024-02-14T13:26:42;14.45;;;9.93;;
51981;SDS011;37998;53.416;6.730;2024-02-14T13:29:08;13.65;;;11.20;;
51981;SDS011;37998;53.416;6.730;2024-02-14T13:31:33;13.70;;;9.63;;
51981;SDS011;37998;53.416;6.730;2024-02-14T13:33:59;14.55;;;10.02;;
51981;SDS011;37998;53.416;6.730;2024-02-14T13:36:25;17.38;;;10.88;;
51981;SDS011;37998;53.416;6.730;2024-02-14T13:38:51;12.80;;;8.65;;
51981;SDS011;37998;53.416;6.730;2024-02-14T13:41:17;10.23;;;6.95;;
51981;SDS011;37998;53.416;6.730;2024-02-14T13:43:43;10.07;;;6.65;;
51981;SDS011;37998;53.416;6.730;2024-02-14T13:46:09;11.23;;;7.82;;
51981;SDS011;37998;53.416;6.730;2024-02-14T13:48:36;13.05;;;9.15;;
51981;SDS011;37998;53.416;6.730;2024-02-14T13:51:02;14.38;;;12.75;;
51981;SDS011;37998;53.416;6.730;2024-02-14T13:53:28;12.23;;;10.00;;
51981;SDS011;37998;53.416;6.730;2024-02-14T13:55:54;12.07;;;10.30;;
51981;SDS011;37998;53.416;6.730;2024-02-14T13:58:21;13.82;;;6.70;;
51981;SDS011;37998;53.416;6.730;2024-02-14T14:00:47;8.43;;;6.55;;
51981;SDS011;37998;53.416;6.730;2024-02-14T14:03:13;8.77;;;5.90;;
51981;SDS011;37998;53.416;6.730;2024-02-14T14:05:39;7.80;;;6.75;;
51981;SDS011;37998;53.416;6.730;2024-02-14T14:08:05;8.75;;;6.43;;
51981;SDS011;37998;53.416;6.730;2024-02-14T14:10:31;7.88;;;6.20;;
51981;SDS011;37998;53.416;6.730;2024-02-14T14:12:57;10.35;;;6.40;;
51981;SDS011;37998;53.416;6.730;2024-02-14T14:15:23;7.72;;;6.55;;
51981;SDS011;37998;53.416;6.730;2024-02-14T14:17:49;8.77;;;7.18;;
51981;SDS011;37998;53.416;6.730;2024-02-14T14:20:15;9.90;;;7.57;;
51981;SDS011;37998;53.416;6.730;2024-02-14T14:22:41;9.63;;;7.95;;
51981;SDS011;37998;53.416;6.730;2024-02-14T14:25:07;14.43;;;12.68;;
51981;SDS011;37998;53.416;6.730;2024-02-14T14:27:33;8.90;;;8.00;;
51981;SDS011;37998;53.416;6.730;2024-02-14T14:29:59;12.98;;;8.85;;
51981;SDS011;37998;53.416;6.730;2024-02-14T14:32:25;9.93;;;8.20;;
51981;SDS011;37998;53.416;6.730;2024-02-14T14:34:51;10.60;;;9.02;;
51981;SDS011;37998;53.416;6.730;2024-02-14T14:37:18;13.77;;;9.02;;
51981;SDS011;37998;53.416;6.730;2024-02-14T14:39:44;12.85;;;8.50;;
51981;SDS011;37998;53.416;6.730;2024-02-14T14:42:10;10.27;;;8.60;;
51981;SDS011;37998;53.416;6.730;2024-02-14T14:44:36;9.80;;;8.07;;